Terminal Aerodrome Forecast
Issued by NWS

Current Version | Previous Version | Graphics & Text | Print | Product List | Glossary On
Versions: 1 2 3 4 5 6 7 8 9 10 11 12 13 14 15 16 17 18 19 20
000
FTUS41 KILN 222300
TAFLUK
TAF
KLUK 222320Z 2300/2324 30013KT P6SM FEW060
     FM230200 25005KT P6SM SKC
     FM231500 28014G22KT P6SM FEW060=

USA.gov is the U.S. government's official web portal to all federal, state and local government web resources and services.